Garden Spring, Nevada Weather observations

Data are for 10 minute period ending at time listed.
 Day   Time    Ave.   Ave.  Ave.  Vector   Max.   Stn.    Total    Solar   Ave.  
  of    of     Air    Rel.  Wind   Wind    Wind   Baro.  Precip.   Rad.    Soil  
Year   Day     Temp.  Hum.  Speed  Dir.    Gust   Pres.                    Temp. 
2026   (PST)    F      %     mph   deg.    mph     mb.     in.     W/m2     F    
--------------------------------------------------------------------------------- 
 129    7:20   77.4    13    9.9    17     18.0   852.3    0.00     516    68.8  
 129    7:30   77.7    13    9.9    26     18.2   852.3    0.00     552    68.8  
 129    7:40   78.4    12    9.3    33     15.5   852.4    0.00     586    68.8  
 129    7:50   79.0    12    7.1    40     14.4   852.5    0.00     620    68.8  
 129    8:00   80.4    12    7.1    27     12.2   852.5    0.00     652    68.9  
 129    8:10   81.1    12    5.7    21     11.3   852.5    0.00     684    69.0  
 129    8:20   82.0    12    6.2     6     12.2   852.5    0.00     714    69.1  
 129    8:30   81.1    12    8.4    16     15.0   852.4    0.00     745    69.1  
 129    8:40   82.4    12    5.5    18     12.8   852.4    0.00     773    69.1  
 129    8:50   81.7    11    4.5    61     11.2   852.5    0.00     802    69.2  
 129    9:00   82.0    12    5.3    31     11.5   852.6    0.00     828    69.3  
 129    9:10   82.7    12    6.9    10     13.9   852.6    0.00     852    69.5  
 129    9:20   83.3    11    7.0     3     13.0   852.7    0.00     874    69.6  
 129    9:30   82.7    11    6.8   350     12.6   852.7    0.00     897    69.8  
 129    9:40   83.8    11    6.5     8     14.2   852.7    0.00     919    70.0  
 129    9:50   83.0    11    7.5   357     14.4   852.6    0.00     938    70.2  
 129   10:00   83.1    11    6.5   326     15.4   852.6    0.00     954    70.4  
 129   10:10   83.9    11    7.3    31     13.6   852.6    0.00     971    70.8  
 129   10:20   84.0    11    8.6    22     15.1   852.6    0.00     987    71.0  
 129   10:30   84.1    11    7.9    26     13.6   852.6    0.00     998    71.3  
 129   10:40   84.0    11    8.7    20     15.5   852.5    0.00    1009    71.6  
 129   10:50   83.8    11    7.6     6     16.0   852.5    0.00    1019    71.8  
 129   11:00   83.7    11    5.5    37     11.2   852.4    0.00    1025    72.1  
 129   11:10   85.0    10    6.0    10     12.2   852.4    0.00    1029    72.4  
 129   11:20   85.0    10    9.0    17     17.1   852.3    0.00    1033    72.7  
 129   11:30   84.5    10    7.1   348     16.3   852.3    0.00    1036    72.9  
 129   11:40   84.8    10    4.4   298      9.4   852.2    0.00    1036    73.2  
 129   11:50   85.7    10    6.7     7     12.5   852.1    0.00    1036    73.6  
 129   12:00   86.5    10    4.4    16     12.3   852.0    0.00    1037    73.8  
 129   12:10   85.1    10    5.0     4     12.1   851.8    0.00    1037    74.3  
 129   12:20   87.1    10    4.5   322     11.2   851.8    0.00    1035    74.8  
 129   12:30   86.3    10    6.1   272     12.0   851.7    0.00    1060    75.4  
 129   12:40   88.0     9    4.5    15     15.3   851.6    0.00    1055    76.0  
 129   12:50   88.3     9    6.4   304     13.4   851.5    0.00    1040    76.6  
 129   13:00   85.7    10    5.1   324     12.5   851.4    0.00     804    76.8  
 129   13:10   87.6     9    5.9   305     12.3   851.3    0.00    1053    77.2  
 129   13:20   87.5     9    5.2   329     17.0   851.1    0.00    1032    77.7  
 129   13:30   88.2     9   10.3   337     20.2   850.9    0.00    1010    78.2  
 129   13:40   88.0     9    6.4   326     17.7   850.9    0.00     977    78.5  
 129   13:50   87.9     9    8.9   313     16.9   850.8    0.00     941    78.9  
 129   14:00   87.8     9    7.8   312     18.7   850.7    0.00     766    79.2  
 129   14:10   86.6     9    7.6   275     21.7   850.6    0.00     834    79.4  
 129   14:20   87.6     9    8.2   252     17.0   850.4    0.00     856    79.9  
 129   14:30   88.2     9    6.4   294     15.5   850.4    0.00     943    80.4  
 129   14:40   89.1     9    8.0   350     22.9   850.1    0.00     922    81.0  
 129   14:50   87.7     9    6.9   254     15.9   850.1    0.00     670    81.2  
 129   15:00   85.9     9    6.5   285     12.7   850.1    0.00     459    81.0  
 129   15:10   88.7     8    4.6   277      9.5   850.0    0.00     848    81.5  
 129   15:20   89.0     8    8.1   318     15.6   849.9    0.00     802    82.2  
 129   15:30   88.8     8    5.9   323     13.4   849.9    0.00     604    82.4  
 129   15:40   86.0     8    5.2   258     10.4   849.8    0.00     410    82.2  
 129   15:50   88.3     8    5.4   320     11.6   849.7    0.00     656    82.4  
 129   16:00   87.8     8    9.0   327     16.0   849.8    0.00     586    82.7  
 129   16:10   85.4     9    8.7   318     17.1   849.9    0.00     226    82.6  
 129   16:20   83.2     9    7.5   325     14.5   849.9    0.00     158    82.3  
 129   16:30   85.1     9    6.9   315     13.1   849.9    0.00     381    82.4  
 129   16:40   84.9     9    7.2   324     14.7   850.0    0.00     271    82.7  
 129   16:50   83.0     9    5.5   314     11.5   850.0    0.00      74    82.7  
 129   17:00   82.0    10    4.9   324      9.3   850.0    0.00     132    82.6  
 129   17:10   83.5     9    5.3   328      9.8   850.0    0.00     247    82.7  
 129   17:20   84.0     9    7.9   354     13.4   850.0    0.00     227    82.9  
 129   17:30   84.0     9    7.4    14     13.8   850.1    0.00     166    82.9  
 129   17:40   82.2     9    6.2   358     11.3   850.1    0.00      71    82.7  
 129   17:50   81.0     9    6.4   345     10.9   850.1    0.00      40    82.5  
 129   18:00   80.0     9    5.3   357     10.1   850.1    0.00      38    82.3  
 129   18:10   80.0    10    4.2   340      7.0   850.1    0.00      52    82.2  
 129   18:20   78.9    10    5.3   331      9.5   850.2    0.00      16    82.0  
 129   18:30   78.5    10    5.6   336     10.3   850.3    0.00      10    81.9  
 129   18:40   78.1    10    5.3   338     12.0   850.3    0.00       6    81.7  
 129   18:50   77.1    10    4.4   338      7.3   850.4    0.00       2    81.6  
 129   19:00   76.2    10    4.4   333      7.2   850.5    0.00       1    81.3  
 129   19:10   75.3    11    3.8   327      6.0   850.7    0.00       0    81.1  
 129   19:20   74.4    11    4.0   324      6.7   850.8    0.00       0    80.9  
 129   19:30   73.9    12    4.4   324      7.3   851.0    0.00       0    80.7  
 129   19:40   73.9    12    4.6   316      8.7   851.1    0.00       0    80.6  
 129   19:50   73.3    13    4.6   316      7.7   851.2    0.00       0    80.4  
 129   20:00   73.1    13    4.9   318      8.5   851.3    0.00       0    80.2  
 129   20:10   73.0    13    5.0   311      9.2   851.4    0.00       0    80.1  
 129   20:20   72.8    13    6.3   351     13.5   851.6    0.00       0    79.9  
 129   20:30   73.9    13    6.3     6     11.9   851.6    0.00       0    79.8  
 129   20:40   72.5    13    3.6   310      7.1   851.7    0.00       0    79.6  
 129   20:50   71.8    13    4.8   331     10.3   851.7    0.00       0    79.2  
 129   21:00   72.4    12    5.3   344     10.6   851.8    0.00       0    79.0  
 129   21:10   72.9    12    5.6     4     12.7   851.8    0.00       0    78.9  
 129   21:20   73.2    12    7.1     3     16.9   851.8    0.00       0    78.7  
 129   21:30   73.2    12    7.1     7     13.8   851.8    0.00       0    78.6  
 129   21:40   73.3    12    7.3     2     16.0   851.9    0.00       0    78.4  
 129   21:50   72.8    11    6.1     3     13.0   852.0    0.00       0    78.2  
 129   22:00   71.1    12    3.9   315      7.3   852.0    0.00       0    77.8  
 129   22:10   70.4    12    4.5   335      9.8   852.0    0.00       0    77.5  
 129   22:20   70.5    12    4.6     4     10.9   852.2    0.00       0    77.3  
 129   22:30   68.5    12    2.8   192      5.3   852.4    0.00       0    77.0  
 129   22:40   66.7    13    1.4   239      3.7   852.6    0.00       0    76.6  
 129   22:50   66.9    13    2.2   158      5.1   852.7    0.00       0    76.3  
 129   23:00   67.6    12    4.7    40     11.1   852.8    0.00       0    76.2  
 129   23:10   69.0    11    5.7    16     10.9   852.9    0.00       0    76.3  
 129   23:20   68.2    11    6.3    18     10.3   852.9    0.00       0    76.2  
 129   23:30   68.6    10    9.1    10     14.5   852.9    0.00       0    76.1  
 129   23:40   69.3    10   11.1    13     17.7   852.9    0.00       0    76.1  
 129   23:50   69.7     9   11.1    14     16.9   852.8    0.00       0    75.9  
 130    0:00   70.0     9   11.1    19     17.6   852.8    0.00       0    75.8  
 130    0:10   69.9     8   10.2    15     18.7   852.8    0.00       0    75.6  
 130    0:20   69.6     8    8.6    11     16.0   852.8    0.00       0    75.3  
 130    0:30   69.4     9    6.3    15     13.6   852.9    0.00       0    75.1  
 130    0:40   69.3     9    5.9    26     11.2   853.0    0.00       0    74.8  
 130    0:50   68.6     9    3.0   312      7.0   853.1    0.00       0    74.6  
 130    1:00   66.9     9    1.9   281      4.9   853.1    0.00       0    74.2  
 130    1:10   66.8     9    3.0    66      7.9   853.2    0.00       0    73.9  
 130    1:20   67.0     9    2.4   119      8.0   853.3    0.00       0    73.8  
 130    1:30   66.8     9    2.0    12      5.4   853.3    0.00       0    73.6  
 130    1:40   66.6    10    1.8   225      5.4   853.3    0.00       0    73.5  
 130    1:50   65.0    10    2.5   246      8.4   853.4    0.00       0    73.3  
 130    2:00   62.7    11    2.2   280      4.1   853.5    0.00       0    73.1  
 130    2:10   63.0    11    2.7   239      4.4   853.6    0.00       0    72.9  
 130    2:20   62.1    11    3.6   226      5.4   853.6    0.00       0    72.8  
 130    2:30   63.2    10    3.1   230      5.6   853.6    0.00       0    72.6  
 130    2:40   64.4    10    2.5   187      5.7   853.6    0.00       0    72.6  
 130    2:50   63.9    10    2.2   202      5.6   853.7    0.00       0    72.4  
 130    3:00   64.8    10    2.9   133      6.2   853.7    0.00       0    72.3  
 130    3:10   65.7    10    2.6   138      5.3   853.7    0.00       0    72.3  
 130    3:20   65.1    10    1.7   163      4.2   853.8    0.00       0    72.1  
 130    3:30   64.8    10    1.3   256      3.5   853.9    0.00       0    71.9  
 130    3:40   64.8    10    2.0   310      5.1   853.9    0.00       0    71.8  
 130    3:50   64.9    10    3.3   305      6.2   853.9    0.00       0    71.7  
 130    4:00   65.3    10    4.9   333      8.7   853.9    0.00       0    71.6  
 130    4:10   65.6    10    4.2   333      7.8   854.0    0.00       0    71.5  
 130    4:20   64.7    11    4.6   302      7.6   854.1    0.00       1    71.3  
 130    4:30   64.6    11    4.0   321      7.8   854.1    0.00       2    71.2  
 130    4:40   65.0    10    4.8   345      9.7   854.2    0.00       6    71.0  
 130    4:50   65.5    10    3.8   348      7.7   854.3    0.00      14    70.8  
 130    5:00   64.5    11    2.6   283      4.9   854.4    0.00      33    70.7  
 130    5:10   65.3    11    2.0   268      3.4   854.5    0.00      61    70.6  
 130    5:20   66.7    11    2.2   320      4.4   854.6    0.00      97    70.7  
 130    5:30   68.1    12    0.8   286      2.5   854.6    0.00     133    70.8  
 130    5:40   69.4    11    1.0    63      4.6   854.8    0.00     166    70.7  
 130    5:50   71.8    10    1.8    91      6.0   854.9    0.00     201    70.9  
 130    6:00   72.6     9    4.5    70      8.5   855.0    0.00     236    71.3  
 130    6:10   73.1     9    5.6    55     12.2   855.1    0.00     274    71.5  
 130    6:20   73.4     9    6.9    52     11.3   855.2    0.00     311    71.3  
 130    6:30   74.0     8    6.6    48     11.7   855.3    0.00     347    71.1  
 130    6:40   74.1     8    7.1    74     11.9   855.4    0.00     384    70.9  
 130    6:50   74.6     8    6.2    55     11.3   855.5    0.00     423    70.5  
 130    7:00   74.9     8    6.6    67     13.4   855.6    0.00     459    70.2  
 130    7:10   75.1     8    7.3    73     12.4   855.7    0.00     495    70.1  

Return to Garden Spring, Nevada graphs page.


Western Regional Climate Center,wrcc@dri.edu